Terminal Aerodrome Forecast
Issued by NWS

Home | Current Version | Previous Version | Text Only | Print | Product List | Glossary On
Versions: 1 2 3 4 5 6 7 8 9 10 11 12 13 14 15 16 17 18 19 20 21 22 23 24 25 26
000
FTUS42 KRAH 231140
TAFINT
TAF
KINT 231140Z 2312/2412 VRB02KT 6SM HZ OVC025
      TEMPO 2312/2314 BKN012
     FM231400 VRB03KT P6SM -RA BKN012 OVC025
     FM231600 08005KT 6SM -RA OVC006
     FM231900 07005KT 2SM RA BR OVC003
     FM240000 11009KT 2SM -RADZ OVC003 WS020/19055KT=

USA.gov is the U.S. government's official web portal to all federal, state and local government web resources and services.